createdAt,value
2022-09-24T00:01:57.156Z,3.00
2022-09-24T00:04:27.743Z,2.80
2022-09-24T00:06:57.050Z,3.30
2022-09-24T00:09:25.095Z,3.43
2022-09-24T00:11:53.987Z,2.87
2022-09-24T00:14:22.300Z,3.00
2022-09-24T00:16:50.432Z,2.90
2022-09-24T00:19:18.668Z,3.07
2022-09-24T00:21:46.719Z,3.10
2022-09-24T00:24:38.554Z,2.80
2022-09-24T00:27:06.779Z,2.87
2022-09-24T00:29:36.160Z,2.93
2022-09-24T00:32:05.904Z,2.90
2022-09-24T00:34:34.288Z,3.13
2022-09-24T00:37:02.651Z,3.50
2022-09-24T00:39:32.598Z,2.90
2022-09-24T00:42:00.665Z,2.97
2022-09-24T00:44:56.362Z,3.40
2022-09-24T00:47:31.901Z,3.37
2022-09-24T00:50:19.290Z,3.07
2022-09-24T00:52:52.851Z,2.97
2022-09-24T00:55:25.078Z,3.47
2022-09-24T00:57:56.959Z,3.50
2022-09-24T01:00:25.211Z,3.97
2022-09-24T01:02:57.848Z,3.37
2022-09-24T01:05:25.931Z,3.27
2022-09-24T01:07:55.206Z,3.70
2022-09-24T01:10:51.896Z,4.03
2022-09-24T01:13:34.847Z,4.10
2022-09-24T01:16:08.556Z,3.83
2022-09-24T01:18:42.187Z,3.40
2022-09-24T01:21:27.677Z,4.20
2022-09-24T01:24:19.592Z,3.80
2022-09-24T01:27:00.165Z,3.80
2022-09-24T01:29:37.756Z,4.13
2022-09-24T01:32:09.050Z,3.97
2022-09-24T01:34:43.370Z,3.60
2022-09-24T01:37:15.390Z,4.10
2022-09-24T01:39:47.003Z,4.10
2022-09-24T01:42:16.138Z,3.93
2022-09-24T01:44:45.911Z,3.83
2022-09-24T01:47:20.599Z,4.30
2022-09-24T01:49:48.762Z,3.93
2022-09-24T01:52:24.118Z,4.50
2022-09-24T01:54:56.640Z,3.77
2022-09-24T01:57:30.228Z,4.10
2022-09-24T02:00:05.159Z,4.18
2022-09-24T02:02:39.853Z,3.90
2022-09-24T02:05:13.508Z,3.97
2022-09-24T02:07:47.061Z,4.05
2022-09-24T02:10:16.862Z,4.47
2022-09-24T02:12:49.122Z,4.10
2022-09-24T02:15:23.341Z,3.93
2022-09-24T02:20:25.084Z,4.03
2022-09-24T02:22:55.927Z,3.83
2022-09-24T02:25:28.810Z,4.00
2022-09-24T02:27:57.253Z,4.60
2022-09-24T02:30:26.880Z,4.33
2022-09-24T02:32:56.990Z,4.60
2022-09-24T02:35:24.543Z,4.33
2022-09-24T02:37:52.535Z,4.30
2022-09-24T02:40:21.002Z,4.03
2022-09-24T02:42:50.255Z,4.23
2022-09-24T02:45:18.412Z,3.70
2022-09-24T02:47:47.731Z,4.50
2022-09-24T02:50:16.134Z,4.33
2022-09-24T02:52:44.473Z,4.00
2022-09-24T02:55:13.272Z,4.93
2022-09-24T02:57:41.347Z,4.83
2022-09-24T03:00:10.858Z,4.70
2022-09-24T03:02:38.866Z,4.77
2022-09-24T03:05:09.483Z,4.87
2022-09-24T03:07:37.943Z,4.73
2022-09-24T03:10:07.080Z,4.57
2022-09-24T03:12:34.959Z,4.80
2022-09-24T03:15:03.179Z,4.57
2022-09-24T03:17:31.185Z,5.17
2022-09-24T03:19:59.346Z,5.10
2022-09-24T03:22:29.434Z,4.93
2022-09-24T03:24:57.514Z,5.07
2022-09-24T03:27:25.876Z,4.90
2022-09-24T03:30:11.032Z,5.20
2022-09-24T03:32:39.317Z,4.83
2022-09-24T03:35:08.509Z,5.17
2022-09-24T03:37:38.971Z,5.00
2022-09-24T03:40:08.136Z,5.63
2022-09-24T03:42:36.729Z,5.00
2022-09-24T03:45:05.403Z,4.90
2022-09-24T03:47:33.532Z,5.07
2022-09-24T03:50:02.723Z,5.70
2022-09-24T03:52:30.735Z,5.40
2022-09-24T03:55:00.189Z,5.50
2022-09-24T03:57:28.127Z,5.20
2022-09-24T03:59:56.091Z,4.97
2022-09-24T04:02:24.113Z,5.17
2022-09-24T04:04:52.246Z,4.97
2022-09-24T04:07:20.158Z,5.00
2022-09-24T04:09:48.297Z,5.13
2022-09-24T04:12:18.029Z,5.13
2022-09-24T04:14:46.037Z,5.03
2022-09-24T04:17:14.586Z,5.40
2022-09-24T04:19:42.570Z,5.53
2022-09-24T04:22:10.614Z,5.77
2022-09-24T04:24:38.806Z,5.30
2022-09-24T04:27:07.042Z,5.13
2022-09-24T04:29:36.548Z,6.07
2022-09-24T04:32:04.759Z,5.40
2022-09-24T04:34:35.692Z,5.20
2022-09-24T04:37:03.859Z,5.40
2022-09-24T04:39:31.862Z,5.63
2022-09-24T04:42:00.214Z,6.20
2022-09-24T04:44:29.379Z,5.67
2022-09-24T04:47:03.010Z,5.60
2022-09-24T04:49:31.183Z,5.85
2022-09-24T04:51:59.124Z,5.63
2022-09-24T04:54:28.098Z,5.70
2022-09-24T04:56:56.084Z,6.10
2022-09-24T04:59:25.037Z,5.77
2022-09-24T05:01:54.628Z,6.20
2022-09-24T05:04:24.461Z,6.33
2022-09-24T05:06:52.438Z,5.73
2022-09-24T05:09:20.545Z,6.30
2022-09-24T05:11:48.455Z,6.30
2022-09-24T05:14:16.369Z,6.07
2022-09-24T05:16:44.301Z,5.97
2022-09-24T05:19:12.332Z,6.23
2022-09-24T05:21:41.610Z,7.13
2022-09-24T05:24:09.531Z,6.77
2022-09-24T05:26:54.930Z,6.77
2022-09-24T05:29:22.880Z,5.50
2022-09-24T05:31:51.006Z,5.37
2022-09-24T05:34:19.327Z,4.77
2022-09-24T05:36:49.456Z,5.20
2022-09-24T05:39:17.364Z,5.27
2022-09-24T05:41:45.265Z,5.53
2022-09-24T05:44:13.326Z,4.90
2022-09-24T05:46:41.301Z,4.90
2022-09-24T05:49:09.448Z,4.90
2022-09-24T05:51:37.402Z,5.30
2022-09-24T05:54:07.000Z,4.87
2022-09-24T05:56:35.011Z,5.13
2022-09-24T05:59:03.109Z,5.40
2022-09-24T06:01:31.562Z,4.53
2022-09-24T06:04:02.491Z,5.37
2022-09-24T06:06:33.031Z,4.80
2022-09-24T06:09:01.459Z,4.37
2022-09-24T06:11:39.669Z,5.17
2022-09-24T06:14:09.189Z,4.83
2022-09-24T06:16:37.762Z,4.90
2022-09-24T06:19:05.900Z,4.40
2022-09-24T06:21:33.958Z,4.70
2022-09-24T06:24:03.204Z,4.90
2022-09-24T06:26:33.238Z,5.50
2022-09-24T06:29:04.904Z,5.43
2022-09-24T06:31:33.135Z,5.50
2022-09-24T06:34:02.892Z,5.37
2022-09-24T06:36:30.906Z,5.10
2022-09-24T06:38:59.307Z,5.18
2022-09-24T06:41:27.258Z,4.43
2022-09-24T06:43:56.924Z,4.83
2022-09-24T06:46:26.203Z,4.95
2022-09-24T06:48:55.494Z,4.65
2022-09-24T06:51:24.095Z,4.90
2022-09-24T06:53:52.995Z,4.50
2022-09-24T06:56:21.210Z,4.93
2022-09-24T06:58:49.385Z,5.43
2022-09-24T07:01:18.901Z,4.75
2022-09-24T07:03:46.872Z,5.10
2022-09-24T07:06:15.284Z,5.18
2022-09-24T07:08:43.530Z,4.80
2022-09-24T07:11:11.518Z,4.70
2022-09-24T07:13:39.624Z,5.07
2022-09-24T07:16:08.060Z,4.70
2022-09-24T07:18:38.836Z,4.60
2022-09-24T07:21:07.279Z,4.82
2022-09-24T07:23:35.432Z,4.25
2022-09-24T07:26:03.467Z,4.68
2022-09-24T07:28:31.488Z,4.47
2022-09-24T07:31:00.867Z,4.80
2022-09-24T07:33:28.936Z,4.55
2022-09-24T07:35:58.343Z,4.60
2022-09-24T07:38:27.115Z,4.60
2022-09-24T07:40:59.468Z,4.90
2022-09-24T07:43:28.150Z,4.10
2022-09-24T07:45:58.347Z,5.18
2022-09-24T07:48:26.872Z,4.72
2022-09-24T07:50:54.947Z,4.97
2022-09-24T07:53:24.560Z,5.03
2022-09-24T07:55:52.788Z,5.30
2022-09-24T07:58:20.903Z,4.82
2022-09-24T08:00:48.835Z,5.40
2022-09-24T08:03:16.897Z,4.95
2022-09-24T08:05:45.924Z,5.07
2022-09-24T08:08:14.426Z,5.20
2022-09-24T08:10:43.952Z,4.75
2022-09-24T08:13:12.308Z,4.55
2022-09-24T08:15:40.744Z,4.28
2022-09-24T08:18:09.221Z,4.35
2022-09-24T08:20:38.485Z,4.50
2022-09-24T08:23:10.157Z,4.88
2022-09-24T08:25:38.073Z,4.65
2022-09-24T08:28:09.083Z,5.40
2022-09-24T08:30:37.458Z,4.60
2022-09-24T08:33:06.724Z,4.35
2022-09-24T08:35:34.742Z,4.45
2022-09-24T08:38:03.678Z,4.57
2022-09-24T08:40:34.745Z,4.78
2022-09-24T08:43:11.178Z,4.15
2022-09-24T08:46:03.951Z,4.30
2022-09-24T08:48:37.340Z,3.95
2022-09-24T08:51:09.592Z,3.92
2022-09-24T08:53:48.801Z,3.85
2022-09-24T08:56:22.025Z,3.70
2022-09-24T08:58:56.398Z,4.05
2022-09-24T09:01:34.282Z,3.40
2022-09-24T09:04:06.368Z,3.72
2022-09-24T09:06:49.489Z,3.08
2022-09-24T09:09:20.172Z,3.40
2022-09-24T09:11:52.105Z,3.55
2022-09-24T09:14:31.183Z,3.92
2022-09-24T09:17:04.173Z,3.70
2022-09-24T09:19:36.183Z,2.80
2022-09-24T09:22:09.418Z,3.08
2022-09-24T09:24:44.645Z,2.75
2022-09-24T09:27:15.425Z,2.80
2022-09-24T09:29:49.723Z,3.10
2022-09-24T09:32:32.169Z,2.65
2022-09-24T09:35:07.327Z,2.90
2022-09-24T09:37:42.455Z,3.10
2022-09-24T09:40:31.303Z,2.50
2022-09-24T09:43:04.328Z,2.47
2022-09-24T09:45:39.522Z,2.40
2022-09-24T09:48:12.959Z,2.33
2022-09-24T09:50:45.755Z,2.10
2022-09-24T09:53:21.846Z,2.00
2022-09-24T09:55:54.711Z,2.15
2022-09-24T09:58:25.643Z,2.10
2022-09-24T10:01:05.925Z,2.60
2022-09-24T10:03:37.587Z,2.30
2022-09-24T10:06:07.792Z,1.92
2022-09-24T10:08:36.051Z,2.50
2022-09-24T10:11:04.734Z,2.15
2022-09-24T10:13:33.195Z,2.10
2022-09-24T10:16:05.370Z,2.00
2022-09-24T10:18:36.171Z,1.90
2022-09-24T10:21:10.133Z,1.85
2022-09-24T10:23:40.229Z,1.95
2022-09-24T10:26:09.217Z,1.90
2022-09-24T10:29:00.425Z,1.80
2022-09-24T10:31:32.420Z,1.80
2022-09-24T10:34:02.587Z,2.17
2022-09-24T10:36:32.614Z,1.95
2022-09-24T10:39:05.562Z,1.80
2022-09-24T10:41:33.753Z,2.08
2022-09-24T10:44:05.573Z,1.98
2022-09-24T10:47:08.089Z,2.10
2022-09-24T10:49:54.534Z,1.95
2022-09-24T10:52:40.614Z,1.80
2022-09-24T10:55:20.767Z,1.50
2022-09-24T10:57:59.936Z,1.50
2022-09-24T11:00:38.583Z,1.65
2022-09-24T11:03:36.454Z,2.13
2022-09-24T11:06:18.276Z,1.63
2022-09-24T11:09:07.992Z,1.67
2022-09-24T11:11:48.955Z,1.77
2022-09-24T11:14:30.281Z,1.80
2022-09-24T11:17:11.660Z,1.80
2022-09-24T11:19:54.338Z,1.75
2022-09-24T11:22:34.364Z,1.80
2022-09-24T11:25:21.286Z,1.90
2022-09-24T11:27:57.472Z,1.92
2022-09-24T11:30:29.686Z,2.00
2022-09-24T11:33:09.141Z,1.77
2022-09-24T11:35:56.642Z,1.80
2022-09-24T11:38:38.250Z,1.63
2022-09-24T11:41:24.477Z,1.75
2022-09-24T11:44:10.265Z,1.50
2022-09-24T11:46:53.927Z,1.73
2022-09-24T11:49:38.798Z,1.77
2022-09-24T11:52:11.650Z,1.83
2022-09-24T11:54:46.963Z,1.92
2022-09-24T11:57:20.132Z,1.90
2022-09-24T11:59:54.892Z,1.88
2022-09-24T12:02:27.851Z,1.52
2022-09-24T12:05:02.094Z,1.65
2022-09-24T12:07:36.595Z,1.67
2022-09-24T12:10:26.143Z,1.50
2022-09-24T12:12:58.816Z,1.65
2022-09-24T12:15:32.131Z,1.80
2022-09-24T12:18:07.542Z,1.60
2022-09-24T12:20:46.047Z,1.73
2022-09-24T12:23:18.062Z,1.80
2022-09-24T12:25:49.774Z,1.50
2022-09-24T12:28:40.870Z,1.60
2022-09-24T12:31:34.546Z,1.60
2022-09-24T12:34:11.595Z,1.67
2022-09-24T12:36:57.468Z,1.58
2022-09-24T12:39:29.834Z,1.73
2022-09-24T12:42:03.828Z,1.50
2022-09-24T12:44:40.423Z,1.40
2022-09-24T12:47:19.036Z,1.70
2022-09-24T12:49:52.643Z,1.65
2022-09-24T12:52:26.398Z,1.80
2022-09-24T12:57:34.928Z,2.03
2022-09-24T13:00:06.131Z,1.95
2022-09-24T13:02:46.738Z,1.80
2022-09-24T13:05:28.384Z,2.15
2022-09-24T13:07:59.466Z,2.28
2022-09-24T13:10:29.969Z,2.30
2022-09-24T13:13:00.958Z,2.30
2022-09-24T13:15:34.592Z,2.35
2022-09-24T13:18:18.699Z,2.40
2022-09-24T13:23:48.658Z,2.30
2022-09-24T13:26:30.236Z,2.28
2022-09-24T13:29:01.641Z,2.50
2022-09-24T13:31:45.009Z,2.40
2022-09-24T13:34:21.575Z,2.47
2022-09-24T13:36:57.729Z,2.13
2022-09-24T13:39:34.708Z,2.20
2022-09-24T13:42:09.675Z,2.00
2022-09-24T13:44:43.697Z,1.88
2022-09-24T13:47:16.699Z,2.10
2022-09-24T13:49:48.475Z,2.20
2022-09-24T13:52:30.098Z,2.10
2022-09-24T13:55:00.818Z,2.00
2022-09-24T13:57:30.399Z,2.30
2022-09-24T14:00:27.822Z,2.20
2022-09-24T14:03:00.943Z,2.10
2022-09-24T14:05:30.566Z,2.38
2022-09-24T14:08:03.035Z,2.00
2022-09-24T14:10:31.192Z,3.40
2022-09-24T14:13:05.826Z,9.25
2022-09-24T14:15:36.341Z,2.10
2022-09-24T14:18:06.998Z,2.15
2022-09-24T14:20:38.174Z,2.03
2022-09-24T14:23:06.591Z,2.25
2022-09-24T14:25:36.476Z,2.50
2022-09-24T14:28:06.402Z,2.42
2022-09-24T14:30:40.272Z,2.20
2022-09-24T14:33:14.889Z,2.22
2022-09-24T14:35:48.229Z,2.63
2022-09-24T14:38:23.066Z,2.47
2022-09-24T14:40:55.034Z,2.10
2022-09-24T14:43:28.974Z,2.05
2022-09-24T14:48:32.571Z,2.38
2022-09-24T14:51:00.695Z,2.28
2022-09-24T14:53:33.111Z,2.30
2022-09-24T14:56:01.396Z,2.38
2022-09-24T14:58:37.489Z,2.22
2022-09-24T15:01:14.030Z,2.58
2022-09-24T15:03:44.537Z,2.40
2022-09-24T15:06:22.291Z,2.70
2022-09-24T15:08:57.579Z,2.40
2022-09-24T15:11:28.855Z,2.50
2022-09-24T15:14:02.417Z,2.70
2022-09-24T15:16:35.221Z,2.55
2022-09-24T15:19:16.920Z,2.65
2022-09-24T15:21:45.561Z,2.50
2022-09-24T15:24:13.505Z,3.05
2022-09-24T15:26:44.062Z,2.80
2022-09-24T15:29:21.015Z,3.33
2022-09-24T15:31:50.726Z,2.92
2022-09-24T15:34:20.289Z,2.75
2022-09-24T15:36:48.757Z,3.40
2022-09-24T15:39:18.779Z,3.33
2022-09-24T15:41:46.775Z,3.13
2022-09-24T15:44:20.847Z,3.80
2022-09-24T15:46:51.627Z,3.88
2022-09-24T15:49:22.101Z,3.45
2022-09-24T15:51:52.128Z,3.15
2022-09-24T15:54:21.721Z,3.13
2022-09-24T15:56:52.511Z,3.22
2022-09-24T15:59:21.302Z,3.30
2022-09-24T16:01:53.271Z,3.35
2022-09-24T16:04:21.278Z,3.20
2022-09-24T16:06:49.638Z,3.22
2022-09-24T16:09:17.765Z,4.10
2022-09-24T16:11:46.958Z,4.25
2022-09-24T16:14:14.910Z,5.95
2022-09-24T16:16:42.836Z,5.93
2022-09-24T16:19:12.594Z,5.63
2022-09-24T16:21:40.838Z,6.10
2022-09-24T16:24:08.823Z,5.32
2022-09-24T16:26:37.439Z,4.57
2022-09-24T16:29:06.740Z,4.80
2022-09-24T16:31:34.803Z,4.35
2022-09-24T16:34:02.791Z,3.95
2022-09-24T16:36:32.113Z,4.25
2022-09-24T16:39:00.245Z,3.90
2022-09-24T16:41:34.297Z,4.10
2022-09-24T16:44:02.492Z,3.85
2022-09-24T16:46:30.772Z,3.80
2022-09-24T16:48:58.797Z,4.20
2022-09-24T16:51:26.723Z,3.97
2022-09-24T16:53:57.218Z,4.13
2022-09-24T16:56:25.754Z,3.83
2022-09-24T16:58:54.496Z,4.03
2022-09-24T17:01:23.357Z,4.10
2022-09-24T17:03:55.334Z,3.90
2022-09-24T17:06:25.040Z,3.87
2022-09-24T17:09:07.426Z,4.17
2022-09-24T17:11:37.130Z,4.35
2022-09-24T17:14:05.515Z,3.93
2022-09-24T17:16:33.675Z,4.60
2022-09-24T17:19:01.770Z,4.63
2022-09-24T17:21:29.996Z,5.30
2022-09-24T17:23:57.940Z,6.00
2022-09-24T17:26:26.159Z,6.10
2022-09-24T17:28:55.965Z,6.67
2022-09-24T17:31:25.833Z,5.60
2022-09-24T17:33:57.293Z,5.97
2022-09-24T17:36:25.922Z,5.30
2022-09-24T17:38:53.934Z,5.10
2022-09-24T17:41:23.050Z,5.20
2022-09-24T17:43:51.802Z,5.33
2022-09-24T17:46:23.427Z,5.03
2022-09-24T17:48:53.199Z,5.27
2022-09-24T17:51:23.254Z,5.20
2022-09-24T17:53:53.093Z,5.10
2022-09-24T17:56:23.269Z,5.10
2022-09-24T17:58:52.255Z,4.83
2022-09-24T18:01:24.198Z,5.77
2022-09-24T18:03:55.078Z,5.20
2022-09-24T18:06:27.083Z,5.77
2022-09-24T18:08:58.143Z,5.60
2022-09-24T18:11:27.945Z,5.43
2022-09-24T18:13:57.439Z,5.70
2022-09-24T18:16:28.733Z,5.53
2022-09-24T18:18:57.259Z,5.20
2022-09-24T18:21:25.666Z,5.50
2022-09-24T18:23:54.449Z,5.23
2022-09-24T18:26:24.611Z,4.87
2022-09-24T18:28:54.177Z,5.43
2022-09-24T18:31:24.444Z,5.43
2022-09-24T18:33:54.675Z,5.50
2022-09-24T18:36:25.663Z,5.90
2022-09-24T18:38:54.403Z,5.63
2022-09-24T18:41:24.111Z,5.70
2022-09-24T18:43:52.694Z,5.80
2022-09-24T18:46:23.063Z,5.90
2022-09-24T18:48:55.769Z,5.50
2022-09-24T18:51:25.493Z,5.33
2022-09-24T18:53:54.703Z,5.57
2022-09-24T18:56:24.203Z,5.87
2022-09-24T18:58:56.637Z,5.93
2022-09-24T19:01:25.377Z,5.80
2022-09-24T19:03:55.154Z,6.27
2022-09-24T19:06:23.259Z,6.07
2022-09-24T19:08:51.177Z,5.90
2022-09-24T19:11:19.229Z,6.57
2022-09-24T19:13:50.090Z,6.47
2022-09-24T19:16:19.604Z,6.47
2022-09-24T19:18:47.665Z,6.70
2022-09-24T19:21:17.174Z,6.27
2022-09-24T19:23:47.827Z,6.27
2022-09-24T19:26:18.022Z,6.67
2022-09-24T19:28:47.298Z,6.30
2022-09-24T19:31:17.335Z,6.77
2022-09-24T19:33:45.323Z,6.00
2022-09-24T19:36:13.322Z,6.30
2022-09-24T19:38:42.774Z,6.40
2022-09-24T19:41:14.042Z,6.43
2022-09-24T19:43:43.761Z,6.20
2022-09-24T19:46:14.691Z,6.23
2022-09-24T19:48:45.612Z,6.17
2022-09-24T19:51:15.722Z,5.60
2022-09-24T19:53:47.915Z,6.40
2022-09-24T19:56:16.481Z,6.30
2022-09-24T19:58:46.670Z,6.03
2022-09-24T20:01:17.490Z,5.80
2022-09-24T20:03:45.748Z,6.10
2022-09-24T20:06:16.200Z,5.60
2022-09-24T20:08:46.759Z,6.03
2022-09-24T20:11:18.285Z,5.93
2022-09-24T20:13:47.327Z,6.20
2022-09-24T20:16:16.602Z,6.37
2022-09-24T20:18:45.068Z,6.13
2022-09-24T20:21:13.570Z,6.00
2022-09-24T20:23:41.522Z,5.90
2022-09-24T20:26:32.126Z,6.57
2022-09-24T20:29:00.637Z,6.73
2022-09-24T20:31:29.162Z,7.27
2022-09-24T20:33:57.143Z,6.60
2022-09-24T20:36:25.616Z,6.27
2022-09-24T20:38:54.403Z,6.70
2022-09-24T20:41:25.302Z,6.60
2022-09-24T20:43:56.586Z,6.43
2022-09-24T20:46:27.759Z,6.20
2022-09-24T20:48:58.223Z,6.40
2022-09-24T20:51:27.538Z,6.03
2022-09-24T20:53:55.992Z,6.10
2022-09-24T20:56:25.301Z,6.20
2022-09-24T20:58:54.787Z,6.17
2022-09-24T21:01:24.938Z,5.93
2022-09-24T21:03:53.408Z,5.90
2022-09-24T21:06:23.114Z,5.77
2022-09-24T21:08:52.208Z,5.80
2022-09-24T21:11:22.538Z,6.10
2022-09-24T21:13:53.395Z,5.57
2022-09-24T21:16:25.037Z,6.13
2022-09-24T21:18:55.300Z,5.27
2022-09-24T21:21:25.057Z,5.23
2022-09-24T21:23:54.296Z,5.43
2022-09-24T21:26:24.649Z,5.40
2022-09-24T21:28:56.108Z,5.93
2022-09-24T21:31:26.644Z,5.60
2022-09-24T21:33:54.916Z,5.57
2022-09-24T21:36:24.527Z,5.53
2022-09-24T21:38:55.403Z,5.50
2022-09-24T21:41:23.462Z,6.00
2022-09-24T21:43:53.580Z,5.60
2022-09-24T21:46:23.605Z,5.53
2022-09-24T21:49:07.998Z,5.93
2022-09-24T21:51:36.082Z,5.80
2022-09-24T21:54:06.307Z,5.40
2022-09-24T21:56:36.197Z,5.10
2022-09-24T21:59:25.918Z,5.23
2022-09-24T22:01:55.667Z,5.53
2022-09-24T22:04:23.763Z,5.40
2022-09-24T22:06:52.670Z,5.13
2022-09-24T22:09:21.607Z,5.20
2022-09-24T22:11:49.991Z,5.40
2022-09-24T22:14:17.945Z,5.13
2022-09-24T22:16:45.930Z,5.30
2022-09-24T22:19:15.535Z,5.10
2022-09-24T22:21:43.479Z,5.10
2022-09-24T22:24:11.873Z,5.20
2022-09-24T22:26:40.420Z,5.27
2022-09-24T22:29:08.438Z,5.20
2022-09-24T22:31:36.363Z,4.97
2022-09-24T22:34:22.062Z,5.50
2022-09-24T22:36:51.849Z,5.33
2022-09-24T22:39:19.789Z,5.60
2022-09-24T22:41:48.042Z,5.10
2022-09-24T22:44:15.969Z,5.13
2022-09-24T22:46:43.873Z,5.40
2022-09-24T22:49:11.979Z,5.40
2022-09-24T22:51:39.928Z,5.00
2022-09-24T22:54:10.048Z,5.63
2022-09-24T22:56:38.388Z,4.90
2022-09-24T22:59:06.955Z,4.87
2022-09-24T23:01:36.409Z,5.27
2022-09-24T23:04:04.491Z,4.80
2022-09-24T23:06:34.310Z,5.03
2022-09-24T23:09:02.945Z,5.00
2022-09-24T23:11:33.751Z,5.33
2022-09-24T23:14:03.505Z,5.10
2022-09-24T23:16:34.428Z,4.70
2022-09-24T23:19:05.065Z,4.57
2022-09-24T23:21:34.233Z,5.00
2022-09-24T23:24:04.482Z,4.63
2022-09-24T23:26:34.140Z,5.10
2022-09-24T23:29:02.252Z,4.90
2022-09-24T23:31:32.262Z,4.83
2022-09-24T23:34:01.639Z,4.50
2022-09-24T23:36:31.650Z,4.20
2022-09-24T23:39:00.342Z,4.97
2022-09-24T23:41:31.662Z,4.23
2022-09-24T23:44:01.465Z,4.40
2022-09-24T23:46:29.827Z,4.50
2022-09-24T23:48:58.553Z,4.20
2022-09-24T23:51:26.508Z,4.17
2022-09-24T23:53:54.694Z,4.53
2022-09-24T23:56:23.214Z,4.13
2022-09-24T23:58:51.168Z,4.40
